Time;durP1;ratioP1;P1;durP2;ratioP2;P2;SDS_P1;SDS_P2;PMS_P1;PMS_P2;Temp;Humidity;BMP_temperature;BMP_pressure;BME280_temperature;BME280_humidity;BME280_pressure;Samples;Min_cycle;Max_cycle;Signal;HPM_P1;HPM_P2
2022/04/26 03:37:23;;;;;;;18.15;12.63;;;15.90;60.00;;;;;;4976427;28;20070;-87
2022/04/26 03:39:49;;;;;;;18.77;12.48;;;16.00;59.90;;;;;;4967060;28;20557;-88
2022/04/26 03:42:15;;;;;;;18.52;12.50;;;16.00;59.90;;;;;;4958597;28;20126;-87
2022/04/26 03:44:42;;;;;;;19.15;12.90;;;16.10;59.50;;;;;;4978860;28;20072;-87
2022/04/26 03:47:08;;;;;;;19.33;13.80;;;16.20;59.30;;;;;;4978171;28;20038;-80
2022/04/26 03:49:43;;;;;;;18.05;13.07;;;16.20;59.00;;;;;;4994980;28;20030;-88
2022/04/26 03:52:15;;;;;;;19.65;13.52;;;16.10;59.30;;;;;;4993576;28;20034;-89
2022/04/26 03:54:41;;;;;;;19.48;13.80;;;16.10;59.50;;;;;;4977374;28;20414;-86
2022/04/26 03:57:06;;;;;;;19.27;13.48;;;16.00;59.20;;;;;;4995635;28;20038;-89
2022/04/26 03:59:32;;;;;;;17.23;12.70;;;16.00;59.20;;;;;;4977922;28;20053;-89
2022/04/26 04:01:58;;;;;;;20.48;13.85;;;15.70;60.10;;;;;;4978313;28;20093;-79
2022/04/26 04:04:23;;;;;;;19.33;13.18;;;15.60;60.50;;;;;;4976697;28;20126;-88
2022/04/26 04:06:49;;;;;;;18.48;13.00;;;15.50;60.40;;;;;;4977469;28;20034;-87
2022/04/26 04:09:17;;;;;;;18.83;12.90;;;15.70;60.30;;;;;;4995268;28;20018;-93
2022/04/26 04:11:46;;;;;;;18.55;13.15;;;15.90;60.00;;;;;;4997222;28;20033;-91
2022/04/26 04:14:23;;;;;;;19.10;13.55;;;15.80;59.80;;;;;;4977911;28;20034;-90
2022/04/26 04:16:49;;;;;;;18.58;12.48;;;15.80;60.10;;;;;;4977742;28;20053;-90
2022/04/26 04:19:17;;;;;;;18.85;12.88;;;15.90;60.00;;;;;;4977852;28;20031;-89
2022/04/26 04:21:53;;;;;;;18.92;13.25;;;15.80;59.70;;;;;;4994082;28;20106;-93
2022/04/26 04:24:19;;;;;;;18.38;13.18;;;15.50;60.60;;;;;;4977408;28;20036;-91
2022/04/26 04:26:53;;;;;;;19.15;13.25;;;15.30;61.10;;;;;;4993939;28;20034;-87
2022/04/26 04:29:25;;;;;;;19.98;13.75;;;15.30;61.80;;;;;;4981629;28;20030;-88
2022/04/26 04:31:53;;;;;;;16.90;12.25;;;15.30;61.60;;;;;;5008298;28;20031;-84
2022/04/26 04:34:28;;;;;;;17.90;12.63;;;15.50;61.50;;;;;;4980628;28;20038;-83
2022/04/26 04:36:53;;;;;;;18.83;12.88;;;15.60;61.30;;;;;;4997756;28;20038;-84
2022/04/26 04:39:20;;;;;;;17.00;12.43;;;15.60;60.90;;;;;;4980816;28;20394;-83
2022/04/26 04:41:47;;;;;;;17.08;12.60;;;15.60;61.30;;;;;;4980604;28;20035;-85
2022/04/26 04:44:22;;;;;;;17.13;12.50;;;15.80;61.10;;;;;;4997808;28;20061;-85
2022/04/26 04:47:13;;;;;;;17.13;13.00;;;15.70;61.10;;;;;;4997309;28;20064;-82
2022/04/26 04:49:38;;;;;;;16.77;11.90;;;15.70;61.50;;;;;;4979329;28;20405;-84
2022/04/26 04:52:17;;;;;;;16.13;11.88;;;15.80;61.50;;;;;;4980171;28;20478;-87
2022/04/26 04:54:46;;;;;;;16.25;12.20;;;15.90;61.20;;;;;;4980281;28;20014;-82
2022/04/26 04:57:18;;;;;;;16.27;11.93;;;16.00;61.20;;;;;;4979683;28;20117;-87
2022/04/26 04:59:43;;;;;;;16.00;12.13;;;15.80;61.50;;;;;;4997171;28;20109;-84
2022/04/26 05:02:17;;;;;;;15.98;11.63;;;15.90;61.90;;;;;;4999587;28;20121;-86
2022/04/26 05:04:47;;;;;;;16.73;12.13;;;15.80;61.40;;;;;;4999967;28;20033;-85
2022/04/26 05:07:16;;;;;;;14.80;10.20;;;15.60;62.10;;;;;;5017547;28;20026;-83
2022/04/26 05:09:42;;;;;;;13.93;10.43;;;15.60;61.50;;;;;;4979430;28;20023;-79
2022/04/26 05:12:13;;;;;;;12.95;9.95;;;15.70;61.60;;;;;;4979424;28;20034;-84
2022/04/26 05:14:38;;;;;;;14.00;10.52;;;15.80;61.40;;;;;;4979784;28;20030;-87
2022/04/26 05:17:16;;;;;;;13.35;9.98;;;15.80;61.70;;;;;;4997442;28;20045;-82
2022/04/26 05:19:42;;;;;;;12.98;9.95;;;15.90;60.90;;;;;;4996908;28;20022;-82
2022/04/26 05:22:09;;;;;;;14.00;9.65;;;16.10;60.60;;;;;;4984102;28;20544;-85
2022/04/26 05:24:53;;;;;;;11.63;9.07;;;16.30;60.40;;;;;;4970119;28;20030;-92
2022/04/26 05:27:22;;;;;;;12.65;9.50;;;16.60;59.80;;;;;;5004155;28;20097;-87
2022/04/26 05:29:48;;;;;;;12.50;9.38;;;16.80;59.30;;;;;;4974904;28;20042;-83
2022/04/26 05:32:22;;;;;;;12.05;8.93;;;17.00;58.80;;;;;;4979734;28;20030;-81
2022/04/26 05:34:54;;;;;;;13.98;9.88;;;17.30;58.10;;;;;;4987551;28;20030;-87
2022/04/26 05:37:19;;;;;;;12.43;9.50;;;17.40;58.40;;;;;;4983598;28;20057;-82
2022/04/26 05:39:45;;;;;;;12.63;9.35;;;17.60;57.80;;;;;;4982414;28;20381;-82
2022/04/26 05:42:13;;;;;;;11.45;8.50;;;17.70;57.30;;;;;;4978238;28;20121;-82
2022/04/26 05:44:39;;;;;;;11.35;9.18;;;17.70;57.20;;;;;;4977792;28;20050;-79
2022/04/26 05:47:07;;;;;;;11.93;9.15;;;17.70;57.60;;;;;;4996393;28;20026;-88
2022/04/26 05:49:34;;;;;;;11.70;8.82;;;17.80;57.50;;;;;;4992530;28;20470;-89
2022/04/26 05:52:00;;;;;;;13.13;9.32;;;17.80;57.00;;;;;;4979149;28;20038;-88
2022/04/26 05:54:26;;;;;;;12.82;9.05;;;17.60;57.60;;;;;;4997094;28;20026;-83
2022/04/26 05:56:54;;;;;;;10.57;8.80;;;17.50;58.20;;;;;;4979740;28;20101;-87
2022/04/26 05:59:21;;;;;;;13.40;9.15;;;17.60;57.70;;;;;;4995524;28;20033;-88
2022/04/26 06:01:47;;;;;;;12.13;8.48;;;17.50;57.80;;;;;;4979131;28;20126;-87
2022/04/26 06:04:13;;;;;;;11.50;8.57;;;17.70;57.30;;;;;;4978880;28;20026;-83
2022/04/26 06:06:42;;;;;;;12.35;9.07;;;17.60;57.70;;;;;;4978337;28;20112;-83
2022/04/26 06:09:07;;;;;;;12.52;8.40;;;17.80;57.50;;;;;;4996275;28;20022;-79
2022/04/26 06:11:33;;;;;;;10.52;8.10;;;17.90;57.40;;;;;;4979194;28;20026;-83
2022/04/26 06:14:01;;;;;;;10.38;7.95;;;17.90;57.30;;;;;;4978790;28;20030;-87
2022/04/26 06:16:28;;;;;;;9.98;7.57;;;17.60;57.50;;;;;;4978789;28;20473;-90
2022/04/26 06:18:54;;;;;;;10.43;7.15;;;17.50;57.50;;;;;;4977673;28;20026;-86
2022/04/26 06:21:20;;;;;;;8.93;6.70;;;17.70;57.70;;;;;;4977279;28;20054;-77
2022/04/26 06:23:45;;;;;;;10.18;7.22;;;18.00;57.00;;;;;;4977255;28;20449;-78
2022/04/26 06:26:11;;;;;;;10.32;6.85;;;17.70;57.30;;;;;;4995461;28;20030;-87
2022/04/26 06:28:37;;;;;;;8.73;6.70;;;17.60;57.80;;;;;;4978583;28;20425;-86
2022/04/26 06:31:03;;;;;;;9.18;7.13;;;17.60;57.40;;;;;;4978547;28;20062;-82
2022/04/26 06:33:28;;;;;;;10.00;6.82;;;17.90;57.40;;;;;;4978485;28;20389;-89
2022/04/26 06:35:54;;;;;;;10.40;7.18;;;18.40;56.20;;;;;;4978600;28;20389;-88
2022/04/26 06:38:23;;;;;;;8.35;6.40;;;18.50;55.40;;;;;;4995882;28;20362;-88
2022/04/26 06:41:31;;;;;;;9.95;7.05;;;18.70;55.70;;;;;;4996360;28;20037;-86
2022/04/26 06:44:08;;;;;;;8.80;6.25;;;19.30;55.00;;;;;;4984265;28;20058;-90
2022/04/26 06:46:36;;;;;;;8.45;6.00;;;20.30;53.30;;;;;;4959177;28;20033;-81
2022/04/26 06:49:03;;;;;;;8.57;6.20;;;21.60;51.60;;;;;;4976077;28;20027;-84
2022/04/26 06:51:42;;;;;;;8.10;6.50;;;22.30;49.60;;;;;;4959128;28;20038;-88
2022/04/26 06:54:33;;;;;;;8.63;6.50;;;22.60;49.00;;;;;;4958617;28;20033;-85
2022/04/26 06:57:31;;;;;;;8.82;6.20;;;22.50;49.30;;;;;;4975299;28;20117;-88
2022/04/26 07:00:06;;;;;;;8.85;6.80;;;21.70;50.00;;;;;;4959410;28;20031;-86
2022/04/26 07:06:25;;;;;;;9.30;7.13;;;22.10;49.70;;;;;;4948889;23;20053;-81
2022/04/26 07:08:51;;;;;;;7.85;6.00;;;21.80;50.70;;;;;;5074015;28;20052;-87
2022/04/26 07:11:21;;;;;;;7.93;6.10;;;21.60;51.00;;;;;;5056706;28;20464;-88
2022/04/26 07:13:48;;;;;;;8.85;5.78;;;21.20;50.70;;;;;;5056886;28;20028;-87
2022/04/26 07:16:17;;;;;;;7.40;5.88;;;21.30;50.70;;;;;;5057195;28;20479;-90
2022/04/26 07:18:53;;;;;;;7.50;6.10;;;22.20;50.10;;;;;;5056147;28;20504;-85
2022/04/26 07:21:27;;;;;;;7.30;5.25;;;22.90;48.50;;;;;;5070340;28;20055;-83
2022/04/26 07:23:53;;;;;;;7.20;5.75;;;23.90;47.70;;;;;;5074109;28;20477;-80
2022/04/26 07:26:25;;;;;;;8.25;6.18;;;24.70;46.30;;;;;;5056130;28;20173;-86
2022/04/26 07:29:05;;;;;;;7.22;5.53;;;25.50;45.10;;;;;;5056223;28;20028;-84
2022/04/26 07:31:31;;;;;;;;;;;25.10;44.60;;;;;;5057504;28;20040;-84
2022/04/26 07:36:41;;;;;;;6.68;4.90;;;24.80;45.40;;;;;;5074684;28;20444;-86
2022/04/26 07:39:06;;;;;;;6.63;4.47;;;24.90;46.00;;;;;;5040059;28;20472;-83
2022/04/26 07:41:35;;;;;;;6.93;5.20;;;24.90;45.40;;;;;;5053886;28;20028;-84
2022/04/26 07:44:00;;;;;;;6.28;4.95;;;24.50;45.20;;;;;;5053901;28;20120;-84
2022/04/26 07:46:35;;;;;;;5.20;3.88;;;23.90;45.70;;;;;;5054304;28;20100;-87
2022/04/26 07:49:09;;;;;;;5.38;4.20;;;23.70;47.20;;;;;;5036172;28;20021;-83
2022/04/26 07:51:35;;;;;;;6.03;4.10;;;23.50;46.60;;;;;;5036444;28;20028;-84
2022/04/26 07:54:01;;;;;;;6.65;3.97;;;23.40;46.80;;;;;;5054360;28;20029;-84
2022/04/26 07:56:31;;;;;;;5.28;3.85;;;23.10;47.00;;;;;;5054004;28;20029;-85
2022/04/26 07:59:03;;;;;;;5.00;3.80;;;22.90;47.90;;;;;;5054189;28;20032;-81
2022/04/26 08:01:47;;;;;;;6.00;4.35;;;23.00;47.00;;;;;;5054164;28;20021;-87
2022/04/26 08:04:16;;;;;;;5.72;3.95;;;23.30;46.80;;;;;;5053501;28;20021;-87
2022/04/26 08:06:42;;;;;;;5.40;3.60;;;23.20;46.00;;;;;;5052761;28;20041;-87
2022/04/26 08:12:04;;;;;;;6.40;4.10;;;23.30;46.90;;;;;;5054058;28;20032;-82
2022/04/26 08:14:30;;;;;;;5.18;3.83;;;23.60;46.90;;;;;;5053988;28;20029;-81
2022/04/26 08:16:55;;;;;;;5.57;3.67;;;23.90;46.30;;;;;;5054097;28;20033;-90
2022/04/26 08:19:34;;;;;;;4.88;3.60;;;24.20;45.90;;;;;;5019875;28;20041;-89
2022/04/26 08:22:15;;;;;;;4.97;3.30;;;24.50;45.50;;;;;;5035461;28;20025;-83
2022/04/26 08:27:30;;;;;;;5.85;3.20;;;25.50;44.10;;;;;;5052369;28;20032;-85
2022/04/26 08:29:57;;;;;;;4.82;3.17;;;26.00;44.10;;;;;;5052436;28;20105;-89
2022/04/26 08:32:26;;;;;;;5.63;3.15;;;26.20;43.40;;;;;;5034258;28;20036;-86
2022/04/26 08:34:53;;;;;;;5.20;3.38;;;25.90;42.70;;;;;;5034374;28;20049;-85
2022/04/26 08:37:19;;;;;;;5.20;3.38;;;26.10;44.10;;;;;;5035455;28;20392;-90
2022/04/26 08:39:44;;;;;;;4.50;3.10;;;26.70;42.80;;;;;;5053657;28;20029;-88
2022/04/26 08:42:11;;;;;;;4.78;3.40;;;26.50;43.10;;;;;;5035995;28;20029;-85
2022/04/26 08:44:38;;;;;;;4.60;3.08;;;26.80;42.70;;;;;;5035840;28;20028;-80
2022/04/26 08:52:47;;;;;;;5.55;2.70;;;26.40;43.00;;;;;;5054466;28;20036;-84
2022/04/26 08:55:13;;;;;;;4.05;2.95;;;26.60;43.30;;;;;;5035923;28;20025;-89
2022/04/26 08:57:39;;;;;;;3.92;2.75;;;26.70;42.50;;;;;;5035654;28;20037;-87
2022/04/26 09:00:06;;;;;;;4.75;2.92;;;26.70;43.60;;;;;;5035587;28;20082;-87
2022/04/26 09:02:31;;;;;;;4.47;2.95;;;26.80;42.10;;;;;;5053295;28;20017;-87
2022/04/26 09:05:01;;;;;;;16.42;3.22;;;26.70;44.00;;;;;;5035887;28;20021;-88
2022/04/26 09:07:30;;;;;;;4.05;2.80;;;26.70;43.70;;;;;;5035558;28;20056;-83
2022/04/26 09:10:13;;;;;;;6.22;2.80;;;26.60;42.20;;;;;;5053594;28;20063;-87
2022/04/26 09:13:14;;;;;;;4.47;2.80;;;26.50;42.50;;;;;;5035733;28;20025;-88
2022/04/26 09:15:48;;;;;;;4.00;2.70;;;26.80;43.30;;;;;;5036335;28;20088;-93
2022/04/26 09:18:30;;;;;;;4.57;2.58;;;27.20;43.20;;;;;;5035601;28;20025;-86
2022/04/26 09:21:08;;;;;;;3.90;2.65;;;27.40;42.00;;;;;;5039723;28;20033;-88
2022/04/26 09:23:38;;;;;;;3.97;2.55;;;27.60;42.20;;;;;;5039567;28;20025;-86
2022/04/26 09:26:07;;;;;;;4.17;2.60;;;27.90;41.70;;;;;;5039255;28;20123;-88
2022/04/26 09:28:33;;;;;;;3.60;2.30;;;28.20;41.40;;;;;;5056884;28;20028;-87
2022/04/26 09:30:59;;;;;;;3.53;2.25;;;28.50;41.60;;;;;;5039048;28;20029;-86
2022/04/26 09:33:53;;;;;;;4.28;2.70;;;28.60;41.70;;;;;;5039258;28;20021;-86
2022/04/26 09:36:32;;;;;;;4.03;2.67;;;28.70;41.50;;;;;;5028860;28;20071;-83
2022/04/26 09:39:25;;;;;;;5.13;2.80;;;28.50;42.30;;;;;;5038870;28;20017;-88
2022/04/26 09:41:53;;;;;;;4.07;2.60;;;28.20;41.40;;;;;;5056483;28;20563;-83
2022/04/26 09:44:42;;;;;;;3.95;2.78;;;27.80;41.00;;;;;;5038818;28;20119;-87
2022/04/26 09:47:14;;;;;;;4.00;2.65;;;27.70;41.80;;;;;;5039076;28;20277;-87
2022/04/26 09:50:14;;;;;;;4.47;2.78;;;28.40;42.10;;;;;;5038632;28;20022;-86
2022/04/26 09:52:40;;;;;;;3.70;2.80;;;28.80;41.10;;;;;;5038664;28;20097;-84
2022/04/26 10:05:12;;;;;;;4.18;2.42;;;32.80;38.50;;;;;;5054805;28;20052;-88
2022/04/26 10:07:49;;;;;;;3.60;2.38;;;32.70;37.90;;;;;;5038314;28;20041;-92
2022/04/26 10:10:15;;;;;;;3.40;2.30;;;32.60;37.80;;;;;;5038252;28;20024;-87
2022/04/26 10:13:31;;;;;;;3.30;2.10;;;33.40;37.70;;;;;;5038339;28;20112;-86
2022/04/26 10:15:27;;;;;;;4.50;2.20;;;33.80;37.30;;;;;;5055506;28;20017;-86
2022/04/26 10:17:53;;;;;;;3.13;2.00;;;34.40;36.80;;;;;;5037723;28;20035;-86
2022/04/26 10:20:41;;;;;;;3.10;2.03;;;34.70;36.80;;;;;;5038230;28;20108;-82
2022/04/26 10:23:10;;;;;;;4.53;2.08;;;35.20;36.60;;;;;;5055723;28;20059;-86
2022/04/26 10:26:02;;;;;;;3.28;2.15;;;35.30;36.60;;;;;;5038072;28;20120;-88
2022/04/26 10:32:27;;;;;;;3.53;2.15;;;35.20;37.60;;;;;;5055845;28;20556;-80
2022/04/26 10:39:07;;;;;;;3.50;2.45;;;37.00;35.40;;;;;;4898089;29;20048;-90
2022/04/26 10:50:30;;;;;;;4.20;2.30;;;38.90;35.30;;;;;;2905901;22;20020;-80
2022/04/26 10:52:55;;;;;;;3.83;2.17;;;39.00;34.50;;;;;;4993977;28;20045;-89
2022/04/26 10:55:26;;;;;;;3.88;2.20;;;38.30;34.40;;;;;;4995647;28;20014;-94
2022/04/26 10:57:51;;;;;;;4.47;2.25;;;37.20;34.10;;;;;;4995572;28;20030;-89
2022/04/26 11:00:27;;;;;;;4.78;2.40;;;35.70;35.30;;;;;;4978422;28;20048;-89
2022/04/26 11:03:01;;;;;;;4.30;2.40;;;34.10;35.60;;;;;;4996348;28;20062;-84
2022/04/26 11:05:27;;;;;;;5.15;2.50;;;32.30;36.10;;;;;;4978661;28;20026;-88
2022/04/26 11:07:55;;;;;;;3.35;2.28;;;30.70;37.20;;;;;;4994582;28;20126;-87
2022/04/26 11:10:25;;;;;;;4.70;2.45;;;29.40;38.40;;;;;;4978427;28;20072;-91
2022/04/26 11:12:52;;;;;;;3.67;2.10;;;28.80;39.00;;;;;;4995290;28;20085;-89
2022/04/26 11:15:20;;;;;;;4.72;2.70;;;28.20;39.60;;;;;;4978082;28;20109;-79
2022/04/26 11:17:47;;;;;;;4.57;2.28;;;27.80;38.60;;;;;;4978185;28;20076;-85
2022/04/26 11:20:18;;;;;;;4.10;2.53;;;27.40;39.70;;;;;;4977904;28;20026;-82
2022/04/26 11:22:52;;;;;;;3.55;2.30;;;27.30;38.80;;;;;;4995629;28;20058;-85
2022/04/26 11:32:09;;;;;;;3.70;2.20;;;26.90;39.10;;;;;;4995357;28;20072;-90
2022/04/26 11:35:14;;;;;;;5.93;2.30;;;27.00;40.10;;;;;;4977890;28;20031;-80
2022/04/26 11:38:17;;;;;;;3.85;2.60;;;26.80;39.60;;;;;;4938812;29;20491;-87
2022/04/26 11:40:56;;;;;;;3.13;1.90;;;27.00;41.30;;;;;;4938457;29;20421;-85
2022/04/26 11:43:35;;;;;;;4.22;2.00;;;26.90;38.30;;;;;;4938200;29;20039;-91
2022/04/26 11:46:11;;;;;;;4.80;1.85;;;26.80;39.40;;;;;;4957068;28;20514;-92
2022/04/26 11:48:39;;;;;;;5.00;1.98;;;26.80;38.80;;;;;;4957624;28;20039;-86
2022/04/26 11:51:06;;;;;;;3.53;2.20;;;26.50;38.60;;;;;;4957283;28;20050;-87
2022/04/26 11:53:36;;;;;;;3.83;2.05;;;26.50;39.30;;;;;;4957369;28;20541;-84
2022/04/26 11:56:04;;;;;;;3.08;1.90;;;26.70;39.40;;;;;;4957362;28;20057;-88
2022/04/26 11:58:38;;;;;;;4.38;1.80;;;26.60;38.40;;;;;;4957695;28;20042;-84
2022/04/26 12:01:12;;;;;;;3.28;1.90;;;26.90;40.40;;;;;;4960334;28;20035;-92
2022/04/26 12:03:55;;;;;;;2.90;1.80;;;26.90;38.90;;;;;;4957530;28;20034;-89
2022/04/26 12:06:29;;;;;;;3.20;1.90;;;26.90;39.40;;;;;;4943125;28;20525;-80
2022/04/26 12:08:57;;;;;;;3.53;1.70;;;26.60;38.60;;;;;;4971405;28;20031;-89
2022/04/26 12:11:38;;;;;;;3.08;1.85;;;26.60;39.20;;;;;;4977716;28;20030;-88
2022/04/26 12:14:11;;;;;;;3.75;2.05;;;26.70;39.50;;;;;;4977591;28;20122;-83
2022/04/26 12:16:44;;;;;;;2.85;1.83;;;26.70;38.70;;;;;;4994435;28;20030;-84
2022/04/26 12:19:10;;;;;;;2.75;1.52;;;26.60;39.00;;;;;;4994454;28;20026;-85
2022/04/26 12:21:43;;;;;;;3.20;1.77;;;26.70;38.40;;;;;;4994210;28;20081;-85
2022/04/26 12:24:13;;;;;;;2.70;1.58;;;26.70;38.20;;;;;;4977741;28;20493;-82
2022/04/26 12:27:12;;;;;;;3.40;1.67;;;26.80;38.60;;;;;;4977716;28;20045;-86
2022/04/26 12:29:38;;;;;;;3.45;1.75;;;26.80;39.00;;;;;;4973195;28;20035;-87
2022/04/26 12:32:09;;;;;;;3.95;1.70;;;26.70;38.60;;;;;;4977150;28;20394;-85
2022/04/26 12:34:36;;;;;;;4.18;1.85;;;26.70;38.30;;;;;;4977026;28;20386;-93
2022/04/26 12:37:15;;;;;;;4.45;1.88;;;26.60;38.40;;;;;;4976539;28;20049;-89
2022/04/26 12:39:49;;;;;;;3.00;1.80;;;26.50;39.40;;;;;;4976575;28;20077;-89
2022/04/26 12:42:25;;;;;;;3.25;1.90;;;26.20;38.00;;;;;;4976248;28;20026;-82
2022/04/26 12:44:56;;;;;;;3.78;1.80;;;26.10;37.70;;;;;;4976888;28;20026;-90
2022/04/26 12:50:28;;;;;;;4.28;1.90;;;25.90;39.10;;;;;;4975305;28;20079;-89
2022/04/26 12:52:55;;;;;;;3.10;2.00;;;25.80;39.40;;;;;;4302051;28;10000792;-86
2022/04/26 12:55:36;;;;;;;3.00;1.90;;;25.70;39.50;;;;;;4980704;28;20030;-83
2022/04/26 12:58:50;;;;;;;3.53;2.08;;;25.70;38.20;;;;;;4979779;28;20049;-85
2022/04/26 13:04:17;;;;;;;3.85;1.80;;;26.20;39.40;;;;;;5089062;23;20118;-82
2022/04/26 13:06:45;;;;;;;3.80;1.90;;;26.50;39.10;;;;;;5060085;28;20242;-86
2022/04/26 13:09:17;;;;;;;4.93;2.15;;;26.60;38.80;;;;;;5060784;28;20024;-95
2022/04/26 13:11:44;;;;;;;2.75;1.80;;;26.70;38.40;;;;;;5060787;28;20029;-88
2022/04/26 13:14:10;;;;;;;4.32;2.00;;;26.90;39.20;;;;;;5060110;28;20024;-84
2022/04/26 13:16:36;;;;;;;3.10;1.90;;;26.60;38.50;;;;;;5059577;28;20029;-83
2022/04/26 13:19:10;;;;;;;4.22;2.15;;;26.50;40.90;;;;;;5059900;28;20048;-92
2022/04/26 13:21:37;;;;;;;3.75;2.08;;;26.60;40.10;;;;;;5059444;28;20024;-87
2022/04/26 13:24:03;;;;;;;3.20;1.90;;;26.60;39.50;;;;;;5059506;28;20391;-78
2022/04/26 13:26:31;;;;;;;3.92;2.10;;;26.50;39.00;;;;;;5059318;28;20078;-81
2022/04/26 13:28:56;;;;;;;5.82;2.67;;;26.40;40.40;;;;;;5059770;28;20031;-88
2022/04/26 13:31:35;;;;;;;7.95;4.53;;;26.40;39.50;;;;;;5060153;28;20021;-93
2022/04/26 13:34:00;;;;;;;10.02;4.35;;;26.30;39.80;;;;;;5060103;28;20127;-91
2022/04/26 13:36:27;;;;;;;10.73;5.68;;;26.30;41.00;;;;;;5059504;28;20043;-85
2022/04/26 13:38:55;;;;;;;10.82;4.65;;;26.50;39.90;;;;;;5059973;28;20031;-90
2022/04/26 13:41:21;;;;;;;5.43;2.50;;;26.80;40.00;;;;;;5060522;28;20520;-82
2022/04/26 13:43:48;;;;;;;6.13;3.80;;;26.80;38.90;;;;;;5059230;28;20021;-90
2022/04/26 13:46:26;;;;;;;4.85;2.45;;;26.80;39.80;;;;;;5059509;28;20467;-88
2022/04/26 13:48:52;;;;;;;6.95;2.50;;;26.40;39.60;;;;;;5060199;28;20032;-91
2022/04/26 13:51:24;;;;;;;8.60;2.63;;;26.50;39.10;;;;;;5059811;28;20020;-92
2022/04/26 13:53:53;;;;;;;3.20;2.10;;;26.40;39.40;;;;;;5059399;28;20065;-83
2022/04/26 13:56:44;;;;;;;5.03;2.38;;;26.40;40.30;;;;;;5058777;28;20033;-92
2022/04/26 14:02:07;;;;;;;4.28;2.20;;;26.40;41.20;;;;;;5906094;22;20423;-88
2022/04/26 14:04:34;;;;;;;3.40;2.25;;;26.70;41.70;;;;;;5035849;28;20041;-88
2022/04/26 14:07:01;;;;;;;5.13;2.50;;;26.70;40.10;;;;;;5019043;28;20028;-89
2022/04/26 14:10:00;;;;;;;4.15;2.33;;;26.80;40.30;;;;;;5037268;28;20365;-94
2022/04/26 14:12:35;;;;;;;5.38;2.70;;;26.80;39.40;;;;;;5035768;28;20476;-83
2022/04/26 14:25:10;;;;;;;15.05;3.60;;;26.50;40.20;;;;;;5051046;23;20412;-93
2022/04/26 14:27:44;;;;;;;4.80;3.10;;;26.50;39.80;;;;;;5038938;28;20036;-96
2022/04/26 14:30:12;;;;;;;5.35;2.70;;;26.50;40.90;;;;;;5037270;28;20048;-89
2022/04/26 14:32:38;;;;;;;4.32;3.00;;;26.10;40.70;;;;;;5037855;28;20041;-91
2022/04/26 14:35:05;;;;;;;4.88;3.42;;;26.00;40.20;;;;;;5037200;28;20028;-83
2022/04/26 14:37:33;;;;;;;4.43;3.03;;;25.40;40.90;;;;;;5037238;28;20046;-92
2022/04/26 14:40:09;;;;;;;5.35;3.20;;;25.50;41.50;;;;;;5038527;28;20028;-94
2022/04/26 14:42:37;;;;;;;3.88;2.78;;;25.70;41.10;;;;;;5038483;28;20773;-90
2022/04/26 14:45:04;;;;;;;4.68;2.92;;;25.90;42.00;;;;;;5037852;28;20032;-89
2022/04/26 14:47:33;;;;;;;4.82;2.65;;;26.20;41.30;;;;;;5045904;23;20053;-94
2022/04/26 14:53:21;;;;;;;4.25;3.00;;;26.40;40.90;;;;;;5071124;22;20063;-80
2022/04/26 14:55:47;;;;;;;5.50;2.92;;;26.20;41.20;;;;;;5053641;28;20028;-86
2022/04/26 14:58:14;;;;;;;3.95;2.72;;;25.80;41.20;;;;;;5035782;28;20032;-88
2022/04/26 15:00:44;;;;;;;4.10;2.80;;;25.90;41.60;;;;;;5055352;28;20025;-90
2022/04/26 15:03:09;;;;;;;5.32;2.95;;;25.90;41.60;;;;;;5039081;28;20021;-87
2022/04/26 15:05:35;;;;;;;5.32;3.00;;;26.10;42.00;;;;;;5037408;28;20070;-82
2022/04/26 15:10:45;;;;;;;4.45;3.15;;;25.90;41.00;;;;;;5052706;28;20075;-87
2022/04/26 15:18:39;;;;;;;10.20;9.00;;;26.20;41.30;;;;;;5053767;28;20023;-86
2022/04/26 15:21:09;;;;;;;4.30;2.92;;;26.10;41.60;;;;;;5037053;28;20368;-80
2022/04/26 15:23:35;;;;;;;4.47;2.95;;;26.10;41.30;;;;;;5036068;28;20116;-85
2022/04/26 15:26:09;;;;;;;5.10;3.50;;;25.80;41.30;;;;;;5035625;28;20024;-84
2022/04/26 15:28:35;;;;;;;4.20;2.90;;;25.50;41.20;;;;;;5034910;28;20029;-87
2022/04/26 15:31:01;;;;;;;4.80;3.55;;;25.60;41.60;;;;;;5052687;28;20084;-88
2022/04/26 15:33:28;;;;;;;4.20;3.17;;;25.50;41.20;;;;;;5036485;28;20491;-87
2022/04/26 15:35:56;;;;;;;6.03;2.92;;;25.60;41.20;;;;;;5036275;28;20368;-87
2022/04/26 15:41:01;;;;;;;4.70;2.80;;;25.90;41.20;;;;;;5265627;22;20052;-82
2022/04/26 15:43:29;;;;;;;5.18;2.70;;;25.90;41.70;;;;;;5036820;28;20451;-86
2022/04/26 15:45:55;;;;;;;4.85;3.17;;;25.80;41.50;;;;;;5020728;28;20025;-86
2022/04/26 15:48:22;;;;;;;4.72;2.60;;;25.60;42.30;;;;;;5036261;28;20305;-85
2022/04/26 15:50:48;;;;;;;3.97;2.90;;;25.70;42.10;;;;;;5037209;28;20097;-85
2022/04/26 15:53:17;;;;;;;6.30;3.17;;;25.80;42.00;;;;;;5035773;28;20107;-84
2022/04/26 15:55:42;;;;;;;4.57;3.25;;;25.90;42.00;;;;;;5035235;28;20120;-80
2022/04/26 15:58:08;;;;;;;6.00;3.30;;;25.80;41.90;;;;;;5035378;28;20131;-84
2022/04/26 16:00:35;;;;;;;4.90;3.40;;;25.80;41.40;;;;;;5034581;28;20024;-86
2022/04/26 16:03:03;;;;;;;4.43;3.17;;;25.50;41.10;;;;;;5035596;28;20424;-86
2022/04/26 16:05:30;;;;;;;4.68;2.88;;;25.40;41.60;;;;;;5035774;28;20025;-86
2022/04/26 16:07:55;;;;;;;6.72;3.10;;;25.50;41.90;;;;;;5034738;28;20021;-84
2022/04/26 16:21:23;;;;;;;4.38;2.83;;;25.40;41.70;;;;;;5051619;28;20036;-84
2022/04/26 16:23:49;;;;;;;8.13;3.17;;;25.60;42.10;;;;;;5034317;28;20369;-83
2022/04/26 16:26:19;;;;;;;5.40;3.00;;;25.70;41.80;;;;;;5033299;28;20025;-85
2022/04/26 16:28:46;;;;;;;4.47;3.33;;;25.70;41.60;;;;;;5033588;28;20020;-85
2022/04/26 16:31:13;;;;;;;7.28;3.50;;;25.70;42.00;;;;;;5033618;28;20313;-79
2022/04/26 16:33:38;;;;;;;4.82;3.45;;;25.60;41.50;;;;;;5051151;28;20410;-85
2022/04/26 16:36:04;;;;;;;4.50;3.28;;;25.40;41.80;;;;;;5021373;28;20533;-82
2022/04/26 16:38:31;;;;;;;4.20;3.20;;;25.50;42.20;;;;;;5030842;28;20025;-85
2022/04/26 16:40:57;;;;;;;5.55;3.25;;;25.50;42.30;;;;;;5034396;28;20060;-87
2022/04/26 16:43:23;;;;;;;4.10;3.00;;;25.30;42.30;;;;;;5053445;28;20021;-93
2022/04/26 16:45:49;;;;;;;5.80;3.10;;;25.40;42.40;;;;;;5035246;28;20036;-91
2022/04/26 16:55:18;;;;;;;7.47;5.90;;;25.50;42.50;;;;;;5053383;28;20024;-88
2022/04/26 16:57:45;;;;;;;6.90;4.85;;;25.50;42.70;;;;;;5026762;28;20038;-85
2022/04/26 17:03:24;;;;;;;5.85;3.35;;;25.60;43.00;;;;;;5078134;23;20066;-86
2022/04/26 17:05:49;;;;;;;4.97;3.55;;;25.50;43.10;;;;;;5054302;28;20086;-80
2022/04/26 17:11:44;;;;;;;5.82;3.47;;;25.20;43.00;;;;;;5073752;28;20074;-87
2022/04/26 17:14:11;;;;;;;10.10;5.53;;;25.20;43.20;;;;;;5055419;28;20035;-86
2022/04/26 17:16:37;;;;;;;17.67;8.07;;;25.20;43.60;;;;;;5055524;28;20028;-87
2022/04/26 17:19:03;;;;;;;33.13;16.73;;;25.20;43.40;;;;;;5055408;28;20032;-87
2022/04/26 17:21:35;;;;;;;26.60;19.25;;;25.30;42.80;;;;;;5055844;28;20082;-87
2022/04/26 17:25:13;;;;;;;16.45;10.52;;;25.30;42.70;;;;;;5055535;28;20085;-87
2022/04/26 17:26:52;;;;;;;6.97;5.03;;;25.20;42.90;;;;;;5065622;28;20060;-87
2022/04/26 17:29:20;;;;;;;5.20;3.78;;;25.20;43.50;;;;;;5055434;28;20028;-88
2022/04/26 17:31:55;;;;;;;11.23;3.30;;;25.20;43.90;;;;;;5055550;28;20033;-90
2022/04/26 17:34:22;;;;;;;6.72;3.70;;;25.20;44.30;;;;;;5049871;28;20095;-87
2022/04/26 17:36:48;;;;;;;5.88;3.25;;;25.10;44.70;;;;;;4701982;28;10000419;-89
2022/04/26 17:39:14;;;;;;;4.60;2.92;;;25.00;44.40;;;;;;5034645;28;20029;-86
2022/04/26 17:41:40;;;;;;;5.53;2.92;;;25.00;44.30;;;;;;5037416;28;20031;-86
2022/04/26 17:44:09;;;;;;;5.20;3.00;;;25.00;44.40;;;;;;5054535;28;20115;-87
2022/04/26 17:46:36;;;;;;;4.40;3.10;;;25.00;44.30;;;;;;5038284;28;20112;-86
2022/04/26 17:49:05;;;;;;;6.68;5.18;;;24.90;44.20;;;;;;5053803;28;20116;-85
2022/04/26 17:51:31;;;;;;;8.45;4.88;;;24.90;44.40;;;;;;5047830;28;20028;-84
2022/04/26 17:56:42;;;;;;;4.95;4.00;;;24.80;44.50;;;;;;5035985;28;20032;-86
2022/04/26 17:59:08;;;;;;;5.57;3.90;;;24.70;44.30;;;;;;5035023;28;20029;-87
2022/04/26 18:01:39;;;;;;;4.45;3.40;;;24.60;44.10;;;;;;5048929;23;20039;-90
2022/04/26 18:04:23;;;;;;;6.78;3.63;;;24.70;44.30;;;;;;5053984;28;20035;-84
2022/04/26 18:06:50;;;;;;;7.72;4.88;;;24.70;43.80;;;;;;5053431;28;20025;-84
2022/04/26 18:09:16;;;;;;;6.35;4.20;;;24.70;45.00;;;;;;5052944;23;20056;-84
2022/04/26 18:11:41;;;;;;;11.65;5.57;;;24.60;44.60;;;;;;5051123;28;20029;-84
2022/04/26 18:14:08;;;;;;;7.10;5.18;;;24.50;45.50;;;;;;5042737;28;20100;-88
2022/04/26 18:16:34;;;;;;;8.57;5.82;;;24.40;44.30;;;;;;5050329;28;20036;-84
2022/04/26 18:19:03;;;;;;;8.82;6.50;;;24.20;44.50;;;;;;5055482;28;20024;-84
2022/04/26 18:24:10;;;;;;;15.38;9.98;;;24.10;44.50;;;;;;5254513;22;20057;-85
2022/04/26 18:26:38;;;;;;;9.57;6.25;;;24.00;44.30;;;;;;5030794;28;20087;-88
2022/04/26 18:29:04;;;;;;;92.30;57.85;;;24.10;45.00;;;;;;5063394;28;20044;-88
2022/04/26 18:31:32;;;;;;;113.22;72.15;;;24.20;44.80;;;;;;5038895;28;20024;-89